createdAt,value
2016-10-28T00:00:21.693Z,29.41
2016-10-28T00:01:02.367Z,29.41
2016-10-28T00:01:43.080Z,29.3
2016-10-28T00:02:23.788Z,29.37
2016-10-28T00:03:04.447Z,29.34
2016-10-28T00:03:45.173Z,29.42
2016-10-28T00:04:25.815Z,29.34
2016-10-28T00:05:06.518Z,29.36
2016-10-28T00:05:47.238Z,29.48
2016-10-28T00:06:27.860Z,29.42
2016-10-28T00:07:08.516Z,29.31
2016-10-28T00:07:49.154Z,29.36
2016-10-28T00:08:29.839Z,29.42
2016-10-28T00:09:10.529Z,29.28
2016-10-28T00:09:51.167Z,29.33
2016-10-28T00:10:31.888Z,29.41
2016-10-28T00:11:12.549Z,29.37
2016-10-28T00:11:53.253Z,29.41
2016-10-28T00:12:34.003Z,29.48
2016-10-28T00:13:14.675Z,29.52
2016-10-28T00:13:55.361Z,29.46
2016-10-28T00:14:36.063Z,29.41
2016-10-28T00:15:16.799Z,29.39
2016-10-28T00:15:57.518Z,29.36
2016-10-28T00:16:38.171Z,29.27
2016-10-28T00:17:18.802Z,29.37
2016-10-28T00:17:59.477Z,29.33
2016-10-28T00:18:40.229Z,29.39
2016-10-28T00:19:20.880Z,29.39
2016-10-28T00:20:01.580Z,29.48
2016-10-28T00:20:42.277Z,29.41
2016-10-28T00:21:22.946Z,29.41
2016-10-28T00:22:03.643Z,29.31
2016-10-28T00:22:44.363Z,29.33
2016-10-28T00:23:25.060Z,29.34
2016-10-28T00:24:05.694Z,29.34
2016-10-28T00:24:46.363Z,29.24
2016-10-28T00:25:27.095Z,29.31
2016-10-28T00:26:07.781Z,29.43
2016-10-28T00:26:48.462Z,29.46
2016-10-28T00:27:29.159Z,29.52
2016-10-28T00:28:09.891Z,29.46
2016-10-28T00:28:50.556Z,29.46
2016-10-28T00:29:31.233Z,29.49
2016-10-28T00:30:11.908Z,29.45
2016-10-28T00:30:52.626Z,29.49
2016-10-28T00:31:33.258Z,29.45
2016-10-28T00:32:13.931Z,29.46
2016-10-28T00:32:54.624Z,29.49
2016-10-28T00:33:35.338Z,29.41
2016-10-28T00:34:16.017Z,29.26
2016-10-28T00:34:56.664Z,29.39
2016-10-28T00:35:37.380Z,29.39
2016-10-28T00:36:18.077Z,29.43
2016-10-28T00:36:58.809Z,29.43
2016-10-28T00:37:39.483Z,29.42
2016-10-28T00:38:20.120Z,29.39
2016-10-28T00:39:00.822Z,29.37
2016-10-28T00:39:41.509Z,29.34
2016-10-28T00:40:22.221Z,29.26
2016-10-28T00:41:02.898Z,29.21
2016-10-28T00:41:43.582Z,29.26
2016-10-28T00:42:24.255Z,29.31
2016-10-28T00:43:04.915Z,29.33
2016-10-28T00:43:45.599Z,29.39
2016-10-28T00:44:26.293Z,29.3
2016-10-28T00:45:06.921Z,29.34
2016-10-28T00:45:47.610Z,29.3
2016-10-28T00:46:28.334Z,29.26
2016-10-28T00:47:09.039Z,29.23
2016-10-28T00:47:49.704Z,29.3
2016-10-28T00:48:30.366Z,29.3
2016-10-28T00:49:10.969Z,29.33
2016-10-28T00:49:51.664Z,29.37
2016-10-28T00:50:32.331Z,29.3
2016-10-28T00:51:13.004Z,29.34
2016-10-28T00:51:53.694Z,29.36
2016-10-28T00:52:34.407Z,29.34
2016-10-28T00:53:15.116Z,29.45
2016-10-28T00:53:55.802Z,29.36
2016-10-28T00:54:36.450Z,29.36
2016-10-28T00:55:17.148Z,29.41
2016-10-28T00:55:57.817Z,29.36
2016-10-28T00:56:38.441Z,29.48
2016-10-28T00:57:19.148Z,29.48
2016-10-28T00:57:59.884Z,29.49
2016-10-28T00:58:40.612Z,29.45
2016-10-28T00:59:21.325Z,29.39
2016-10-28T01:00:01.991Z,29.3
2016-10-28T01:00:42.672Z,29.3
2016-10-28T01:01:23.377Z,29.33
2016-10-28T01:02:04.097Z,29.39
2016-10-28T01:02:44.806Z,29.37
2016-10-28T01:03:25.480Z,29.31
2016-10-28T01:04:06.149Z,29.33
2016-10-28T01:04:46.816Z,29.28
2016-10-28T01:05:27.494Z,29.28
2016-10-28T01:06:08.188Z,29.3
2016-10-28T01:06:48.867Z,29.24
2016-10-28T01:07:29.607Z,29.28
2016-10-28T01:08:10.280Z,29.37
2016-10-28T01:08:50.941Z,29.33
2016-10-28T01:09:31.630Z,29.3
2016-10-28T01:10:12.314Z,29.26
2016-10-28T01:10:53.010Z,29.3
2016-10-28T01:11:33.727Z,29.28
2016-10-28T01:12:14.371Z,29.39
2016-10-28T01:12:55.034Z,29.36
2016-10-28T01:13:35.742Z,29.51
2016-10-28T01:14:16.453Z,29.42
2016-10-28T01:14:57.154Z,29.41
2016-10-28T01:15:37.808Z,29.37
2016-10-28T01:16:18.475Z,29.39
2016-10-28T01:16:59.165Z,29.31
2016-10-28T01:17:39.826Z,29.31
2016-10-28T01:18:20.506Z,29.27
2016-10-28T01:19:01.216Z,29.34
2016-10-28T01:19:41.926Z,29.3
2016-10-28T01:20:22.575Z,29.19
2016-10-28T01:21:03.279Z,29.24
2016-10-28T01:21:44.009Z,29.36
2016-10-28T01:22:24.726Z,29.33
2016-10-28T01:23:05.438Z,29.36
2016-10-28T01:23:46.131Z,29.45
2016-10-28T01:24:26.789Z,29.43
2016-10-28T01:25:07.502Z,29.41
2016-10-28T01:25:48.152Z,29.33
2016-10-28T01:26:28.838Z,29.34
2016-10-28T01:27:09.530Z,29.36
2016-10-28T01:27:50.191Z,29.41
2016-10-28T01:28:30.877Z,29.39
2016-10-28T01:29:11.584Z,29.43
2016-10-28T01:29:52.306Z,29.57
2016-10-28T01:30:32.973Z,29.52
2016-10-28T01:31:13.667Z,29.48
2016-10-28T01:31:54.356Z,29.34
2016-10-28T01:32:35.039Z,29.3
2016-10-28T01:33:15.725Z,29.19
2016-10-28T01:33:56.477Z,29.21
2016-10-28T01:34:37.141Z,29.21
2016-10-28T01:35:17.785Z,29.37
2016-10-28T01:35:58.455Z,29.39
2016-10-28T01:36:39.200Z,29.27
2016-10-28T01:37:19.890Z,29.41
2016-10-28T01:38:00.575Z,29.36
2016-10-28T01:38:41.274Z,29.28
2016-10-28T01:39:21.975Z,29.23
2016-10-28T01:40:02.636Z,29.23
2016-10-28T01:40:43.364Z,29.3
2016-10-28T01:41:24.111Z,29.26
2016-10-28T01:42:04.805Z,29.19
2016-10-28T01:42:45.463Z,29.23
2016-10-28T01:43:26.183Z,29.19
2016-10-28T01:44:06.851Z,29.3
2016-10-28T01:44:47.564Z,29.28
2016-10-28T01:45:28.268Z,29.21
2016-10-28T01:46:09.005Z,29.24
2016-10-28T01:46:49.709Z,29.26
2016-10-28T01:47:30.420Z,29.31
2016-10-28T01:48:11.093Z,29.19
2016-10-28T01:48:51.799Z,29.34
2016-10-28T01:49:32.424Z,29.24
2016-10-28T01:50:13.101Z,29.34
2016-10-28T01:50:53.801Z,29.3
2016-10-28T01:51:34.521Z,29.28
2016-10-28T01:52:15.188Z,29.26
2016-10-28T01:52:55.863Z,29.31
2016-10-28T01:53:36.539Z,29.18
2016-10-28T01:54:17.233Z,29.19
2016-10-28T01:54:57.928Z,29.23
2016-10-28T01:55:38.615Z,29.19
2016-10-28T01:56:19.310Z,29.41
2016-10-28T01:57:00.013Z,29.3
2016-10-28T01:57:40.700Z,29.41
2016-10-28T01:58:21.401Z,29.3
2016-10-28T01:59:02.086Z,29.21
2016-10-28T01:59:42.756Z,29.52
2016-10-28T02:00:23.429Z,29.36
2016-10-28T02:01:04.115Z,29.6
2016-10-28T02:01:44.746Z,29.37
2016-10-28T02:02:25.405Z,29.3
2016-10-28T02:03:06.178Z,29.34
2016-10-28T02:03:46.883Z,29.41
2016-10-28T02:04:27.564Z,29.42
2016-10-28T02:05:08.261Z,29.31
2016-10-28T02:05:48.940Z,29.33
2016-10-28T02:06:29.619Z,29.39
2016-10-28T02:07:10.337Z,29.34
2016-10-28T02:07:51.027Z,29.27
2016-10-28T02:08:31.729Z,29.28
2016-10-28T02:09:12.423Z,29.39
2016-10-28T02:09:53.115Z,29.34
2016-10-28T02:10:33.797Z,29.27
2016-10-28T02:11:14.454Z,29.3
2016-10-28T02:11:55.114Z,29.37
2016-10-28T02:12:35.795Z,29.28
2016-10-28T02:13:16.435Z,29.28
2016-10-28T02:13:57.116Z,29.3
2016-10-28T02:14:37.812Z,29.3
2016-10-28T02:15:18.483Z,29.27
2016-10-28T02:15:59.150Z,29.46
2016-10-28T02:16:39.785Z,29.43
2016-10-28T02:17:20.514Z,29.39
2016-10-28T02:18:01.240Z,29.36
2016-10-28T02:18:41.905Z,29.33
2016-10-28T02:19:22.626Z,29.33
2016-10-28T02:20:03.304Z,29.23
2016-10-28T02:20:43.967Z,29.31
2016-10-28T02:21:24.671Z,29.27
2016-10-28T02:22:05.369Z,29.39
2016-10-28T02:22:46.039Z,29.33
2016-10-28T02:23:26.748Z,29.36
2016-10-28T02:24:07.468Z,29.34
2016-10-28T02:24:48.129Z,29.41
2016-10-28T02:25:28.798Z,29.39
2016-10-28T02:26:09.477Z,29.41
2016-10-28T02:26:50.147Z,29.33
2016-10-28T02:27:30.879Z,29.36
2016-10-28T02:28:11.603Z,29.33
2016-10-28T02:28:52.277Z,29.28
2016-10-28T02:29:32.983Z,29.33
2016-10-28T02:30:13.683Z,29.3
2016-10-28T02:30:54.375Z,29.3
2016-10-28T02:31:35.077Z,29.41
2016-10-28T02:32:15.731Z,29.37
2016-10-28T02:32:56.428Z,29.41
2016-10-28T02:33:37.154Z,29.41
2016-10-28T02:34:17.866Z,29.43
2016-10-28T02:34:58.523Z,29.46
2016-10-28T02:35:39.216Z,29.37
2016-10-28T02:36:19.892Z,29.34
2016-10-28T02:37:00.622Z,29.26
2016-10-28T02:37:41.303Z,29.27
2016-10-28T02:38:22.007Z,29.27
2016-10-28T02:39:02.712Z,29.19
2016-10-28T02:39:43.364Z,29.23
2016-10-28T02:40:24.041Z,29.36
2016-10-28T02:41:04.726Z,29.39
2016-10-28T02:41:45.359Z,29.33
2016-10-28T02:42:26.015Z,29.33
2016-10-28T02:43:06.702Z,29.18
2016-10-28T02:43:47.404Z,29.26
2016-10-28T02:44:28.117Z,29.27
2016-10-28T02:45:08.834Z,29.18
2016-10-28T02:45:49.550Z,29.27
2016-10-28T02:46:30.196Z,29.24
2016-10-28T02:47:10.880Z,29.19
2016-10-28T02:47:51.533Z,29.34
2016-10-28T02:48:32.191Z,29.26
2016-10-28T02:49:12.888Z,29.23
2016-10-28T02:49:53.608Z,29.3
2016-10-28T02:50:34.257Z,29.26
2016-10-28T02:51:14.926Z,29.33
2016-10-28T02:51:55.612Z,29.26
2016-10-28T02:52:36.291Z,29.23
2016-10-28T02:53:16.998Z,29.31
2016-10-28T02:53:57.653Z,29.34
2016-10-28T02:54:38.362Z,29.41
2016-10-28T02:55:18.973Z,29.41
2016-10-28T02:55:59.667Z,29.31
2016-10-28T02:56:40.383Z,29.28
2016-10-28T02:57:21.041Z,29.27
2016-10-28T02:58:01.691Z,29.39
2016-10-28T02:58:42.376Z,29.21
2016-10-28T02:59:23.066Z,29.24
2016-10-28T03:00:03.711Z,29.3
2016-10-28T03:00:44.439Z,29.26
2016-10-28T03:01:25.111Z,29.27
2016-10-28T03:02:05.826Z,29.3
2016-10-28T03:02:46.485Z,29.31
2016-10-28T03:03:27.206Z,29.21
2016-10-28T03:04:07.924Z,29.42
2016-10-28T03:04:48.654Z,29.48
2016-10-28T03:05:29.284Z,29.42
2016-10-28T03:06:09.945Z,29.3
2016-10-28T03:06:50.694Z,29.26
2016-10-28T03:07:31.395Z,29.3
2016-10-28T03:08:12.035Z,29.28
2016-10-28T03:08:52.741Z,29.27
2016-10-28T03:09:33.424Z,29.3
2016-10-28T03:10:14.095Z,29.26
2016-10-28T03:10:54.834Z,29.3
2016-10-28T03:11:35.491Z,29.3
2016-10-28T03:12:16.128Z,29.3
2016-10-28T03:12:56.866Z,29.41
2016-10-28T03:13:37.592Z,29.33
2016-10-28T03:14:18.242Z,29.28
2016-10-28T03:14:58.942Z,29.34
2016-10-28T03:15:39.652Z,29.3
2016-10-28T03:16:20.344Z,29.3
2016-10-28T03:17:01.044Z,29.34
2016-10-28T03:17:41.790Z,29.42
2016-10-28T03:18:22.472Z,29.36
2016-10-28T03:19:03.152Z,29.37
2016-10-28T03:19:43.842Z,29.3
2016-10-28T03:20:24.511Z,29.33
2016-10-28T03:21:05.192Z,29.41
2016-10-28T03:21:45.888Z,29.37
2016-10-28T03:22:26.588Z,29.41
2016-10-28T03:23:07.235Z,29.39
2016-10-28T03:23:47.943Z,29.42
2016-10-28T03:24:28.670Z,29.27
2016-10-28T03:25:09.336Z,29.39
2016-10-28T03:25:50.026Z,29.37
2016-10-28T03:26:30.706Z,29.34
2016-10-28T03:27:11.398Z,29.27
2016-10-28T03:27:52.072Z,29.19
2016-10-28T03:28:32.765Z,29.26
2016-10-28T03:29:13.465Z,29.24
2016-10-28T03:29:54.174Z,29.26
2016-10-28T03:30:35.778Z,29.28
2016-10-28T03:31:16.477Z,29.33
2016-10-28T03:31:57.167Z,29.31
2016-10-28T03:32:37.866Z,29.36
2016-10-28T03:33:18.514Z,29.42
2016-10-28T03:33:59.264Z,29.41
2016-10-28T03:34:39.937Z,29.46
2016-10-28T03:35:20.571Z,29.48
2016-10-28T03:36:01.273Z,29.41
2016-10-28T03:36:42.020Z,29.41
2016-10-28T03:37:22.678Z,29.34
2016-10-28T03:38:03.350Z,29.34
2016-10-28T03:38:44.035Z,29.26
2016-10-28T03:39:24.681Z,29.24
2016-10-28T03:40:05.397Z,29.27
2016-10-28T03:40:46.100Z,29.21
2016-10-28T03:41:26.821Z,29.21
2016-10-28T03:42:07.456Z,29.21
2016-10-28T03:42:48.156Z,29.23
2016-10-28T03:43:28.819Z,29.33
2016-10-28T03:44:09.536Z,29.26
2016-10-28T03:44:50.204Z,29.24
2016-10-28T03:45:30.910Z,29.27
2016-10-28T03:46:11.568Z,29.48
2016-10-28T03:46:52.269Z,29.51
2016-10-28T03:47:32.949Z,29.55
2016-10-28T03:48:13.638Z,29.39
2016-10-28T03:48:54.315Z,29.43
2016-10-28T03:49:34.958Z,29.39
2016-10-28T03:50:15.637Z,29.45
2016-10-28T03:50:56.344Z,29.41
2016-10-28T03:51:37.024Z,29.39
2016-10-28T03:52:17.745Z,29.33
2016-10-28T03:52:58.409Z,29.34
2016-10-28T03:53:39.076Z,29.28
2016-10-28T03:54:19.752Z,29.41
2016-10-28T03:55:00.429Z,29.46
2016-10-28T03:55:41.111Z,29.36
2016-10-28T03:56:21.793Z,29.37
2016-10-28T03:57:02.469Z,29.36
2016-10-28T03:57:43.152Z,29.34
2016-10-28T03:58:23.796Z,29.28
2016-10-28T03:59:04.459Z,29.34
2016-10-28T03:59:45.181Z,29.27
2016-10-28T04:00:25.870Z,29.28
2016-10-28T04:01:06.586Z,29.33
2016-10-28T04:01:47.267Z,29.27
2016-10-28T04:02:27.981Z,29.26
2016-10-28T04:03:08.647Z,29.24
2016-10-28T04:03:49.344Z,29.26
2016-10-28T04:04:30.041Z,29.3
2016-10-28T04:05:10.721Z,29.37
2016-10-28T04:05:51.379Z,29.28
2016-10-28T04:06:32.097Z,29.27
2016-10-28T04:07:12.790Z,29.31
2016-10-28T04:07:53.485Z,29.34
2016-10-28T04:08:34.181Z,29.28
2016-10-28T04:09:14.874Z,29.34
2016-10-28T04:09:55.558Z,29.48
2016-10-28T04:10:36.275Z,29.48
2016-10-28T04:11:17.002Z,29.37
2016-10-28T04:11:57.642Z,29.34
2016-10-28T04:12:38.327Z,29.26
2016-10-28T04:13:19.059Z,29.23
2016-10-28T04:13:59.712Z,29.3
2016-10-28T04:14:40.407Z,29.36
2016-10-28T04:15:21.103Z,29.3
2016-10-28T04:16:01.792Z,29.23
2016-10-28T04:16:42.455Z,29.18
2016-10-28T04:17:23.116Z,29.26
2016-10-28T04:18:03.816Z,29.23
2016-10-28T04:18:44.498Z,29.19
2016-10-28T04:19:25.203Z,29.26
2016-10-28T04:20:05.861Z,29.18
2016-10-28T04:20:46.480Z,29.26
2016-10-28T04:21:27.105Z,29.21
2016-10-28T04:22:07.783Z,29.18
2016-10-28T04:22:48.453Z,29.23
2016-10-28T04:23:29.123Z,29.27
2016-10-28T04:24:09.810Z,29.3
2016-10-28T04:24:50.493Z,29.27
2016-10-28T04:25:31.170Z,29.24
2016-10-28T04:26:11.816Z,29.26
2016-10-28T04:26:52.509Z,29.31
2016-10-28T04:27:33.189Z,29.28
2016-10-28T04:28:13.928Z,29.27
2016-10-28T04:28:54.645Z,29.33
2016-10-28T04:29:35.309Z,29.39
2016-10-28T04:30:16.011Z,29.45
2016-10-28T04:30:56.688Z,29.37
2016-10-28T04:31:37.406Z,29.31
2016-10-28T04:32:18.114Z,29.28
2016-10-28T04:32:58.744Z,29.26
2016-10-28T04:33:39.481Z,29.3
2016-10-28T04:34:20.147Z,29.37
2016-10-28T04:35:00.802Z,29.36
2016-10-28T04:35:41.532Z,29.39
2016-10-28T04:36:22.204Z,29.33
2016-10-28T04:37:02.932Z,29.36
2016-10-28T04:37:43.607Z,29.28
2016-10-28T04:38:24.293Z,29.16
2016-10-28T04:39:05.010Z,29.16
2016-10-28T04:39:45.640Z,29.21
2016-10-28T04:40:26.313Z,29.23
2016-10-28T04:41:07.027Z,29.21
2016-10-28T04:41:47.671Z,29.24
2016-10-28T04:42:28.330Z,29.39
2016-10-28T04:43:09.041Z,29.3
2016-10-28T04:43:49.723Z,29.3
2016-10-28T04:44:30.378Z,29.24
2016-10-28T04:45:11.024Z,29.26
2016-10-28T04:45:51.709Z,29.3
2016-10-28T04:46:32.391Z,29.48
2016-10-28T04:47:13.089Z,29.41
2016-10-28T04:47:53.815Z,29.42
2016-10-28T04:48:34.491Z,29.37
2016-10-28T04:49:15.167Z,29.27
2016-10-28T04:49:55.800Z,29.3
2016-10-28T04:50:36.507Z,29.21
2016-10-28T04:51:17.212Z,29.24
2016-10-28T04:51:57.901Z,29.28
2016-10-28T04:52:38.600Z,29.31
2016-10-28T04:53:19.281Z,29.23
2016-10-28T04:53:59.963Z,29.31
2016-10-28T04:54:40.657Z,29.33
2016-10-28T04:55:21.361Z,29.26
2016-10-28T04:56:02.055Z,29.36
2016-10-28T04:56:42.723Z,29.23
2016-10-28T04:57:23.381Z,29.28
2016-10-28T04:58:04.121Z,29.27
2016-10-28T04:58:44.789Z,29.3
2016-10-28T04:59:25.447Z,29.37
2016-10-28T05:00:06.175Z,29.42
2016-10-28T05:00:46.902Z,29.31
2016-10-28T05:01:27.576Z,29.28
2016-10-28T05:02:08.332Z,29.28
2016-10-28T05:02:48.999Z,29.21
2016-10-28T05:03:29.681Z,29.24
2016-10-28T05:04:10.317Z,29.3
2016-10-28T05:04:51.012Z,29.31
2016-10-28T05:05:31.675Z,29.39
2016-10-28T05:06:12.342Z,29.39
2016-10-28T05:06:53.035Z,29.42
2016-10-28T05:07:33.756Z,29.46
2016-10-28T05:08:14.414Z,29.51
2016-10-28T05:08:55.093Z,29.39
2016-10-28T05:09:35.810Z,29.34
2016-10-28T05:10:16.468Z,29.41
2016-10-28T05:10:57.125Z,29.39
2016-10-28T05:11:37.800Z,29.39
2016-10-28T05:12:18.457Z,29.37
2016-10-28T05:12:59.098Z,29.3
2016-10-28T05:13:39.803Z,29.39
2016-10-28T05:14:20.483Z,29.31
2016-10-28T05:15:01.179Z,29.31
2016-10-28T05:15:41.833Z,29.27
2016-10-28T05:16:22.560Z,29.31
2016-10-28T05:17:03.196Z,29.46
2016-10-28T05:17:43.846Z,29.39
2016-10-28T05:18:24.508Z,29.26
2016-10-28T05:19:05.216Z,29.19
2016-10-28T05:19:45.891Z,29.24
2016-10-28T05:20:26.575Z,29.24
2016-10-28T05:21:07.282Z,29.26
2016-10-28T05:21:48.029Z,29.3
2016-10-28T05:22:28.665Z,29.24
2016-10-28T05:23:09.403Z,29.39
2016-10-28T05:23:50.073Z,29.34
2016-10-28T05:24:30.732Z,29.23
2016-10-28T05:25:11.416Z,29.26
2016-10-28T05:25:52.079Z,29.28
2016-10-28T05:26:32.732Z,29.34
2016-10-28T05:27:13.437Z,29.21
2016-10-28T05:27:54.092Z,29.33
2016-10-28T05:28:34.797Z,29.3
2016-10-28T05:29:15.527Z,29.28
2016-10-28T05:29:56.224Z,29.23
2016-10-28T05:30:36.934Z,29.27
2016-10-28T05:31:17.592Z,29.33
2016-10-28T05:31:58.277Z,29.3
2016-10-28T05:32:38.955Z,29.3
2016-10-28T05:33:19.685Z,29.15
2016-10-28T05:34:00.368Z,29.36
2016-10-28T05:34:41.145Z,29.34
2016-10-28T05:35:21.860Z,29.41
2016-10-28T05:36:02.550Z,29.36
2016-10-28T05:36:43.218Z,29.41
2016-10-28T05:37:23.898Z,29.41
2016-10-28T05:38:04.601Z,29.39
2016-10-28T05:38:45.273Z,29.37
2016-10-28T05:39:25.937Z,29.33
2016-10-28T05:40:06.668Z,29.36
2016-10-28T05:40:47.322Z,29.27
2016-10-28T05:41:28.058Z,29.3
2016-10-28T05:42:08.744Z,29.3
2016-10-28T05:42:49.431Z,29.23
2016-10-28T05:43:30.089Z,29.24
2016-10-28T05:44:10.784Z,29.24
2016-10-28T05:44:51.485Z,29.37
2016-10-28T05:45:32.162Z,29.34
2016-10-28T05:46:12.823Z,29.18
2016-10-28T05:46:53.534Z,29.21
2016-10-28T05:47:34.230Z,29.3
2016-10-28T05:48:14.933Z,29.27
2016-10-28T05:48:55.619Z,29.16
2016-10-28T05:49:36.277Z,29.23
2016-10-28T05:50:16.952Z,29.23
2016-10-28T05:50:57.695Z,29.27
2016-10-28T05:51:38.368Z,29.27
2016-10-28T05:52:19.046Z,29.23
2016-10-28T05:52:59.712Z,29.3
2016-10-28T05:53:40.406Z,29.21
2016-10-28T05:54:21.074Z,29.3
2016-10-28T05:55:01.766Z,29.18
2016-10-28T05:55:42.490Z,29.31
2016-10-28T05:56:23.170Z,29.28
2016-10-28T05:57:03.880Z,29.19
2016-10-28T05:57:44.518Z,29.37
2016-10-28T05:58:25.218Z,29.3
2016-10-28T05:59:05.890Z,29.34
2016-10-28T05:59:46.585Z,29.39
2016-10-28T06:00:27.239Z,29.43
2016-10-28T06:01:07.960Z,29.37
2016-10-28T06:01:48.638Z,29.3
2016-10-28T06:02:29.360Z,29.3
2016-10-28T06:03:10.033Z,29.27
2016-10-28T06:03:50.720Z,29.26
2016-10-28T06:04:31.391Z,29.28
2016-10-28T06:05:12.133Z,29.3
2016-10-28T06:05:52.813Z,29.3
2016-10-28T06:06:33.495Z,29.27
2016-10-28T06:07:14.186Z,29.24
2016-10-28T06:07:54.908Z,29.3
2016-10-28T06:08:35.589Z,29.33
2016-10-28T06:09:16.307Z,29.34
2016-10-28T06:09:57.002Z,29.27
2016-10-28T06:10:37.682Z,29.27
2016-10-28T06:11:18.388Z,29.24
2016-10-28T06:11:59.032Z,29.24
2016-10-28T06:12:39.716Z,29.36
2016-10-28T06:13:20.411Z,29.33
2016-10-28T06:14:01.071Z,29.24
2016-10-28T06:14:41.789Z,29.27
2016-10-28T06:15:22.504Z,29.24
2016-10-28T06:16:04.463Z,29.27
2016-10-28T06:16:45.236Z,29.31
2016-10-28T06:17:26.920Z,29.23
2016-10-28T06:18:07.591Z,29.34
2016-10-28T06:18:48.228Z,29.43
2016-10-28T06:19:28.920Z,29.39
2016-10-28T06:20:09.631Z,29.41
2016-10-28T06:20:50.323Z,29.45
2016-10-28T06:21:30.987Z,29.51
2016-10-28T06:22:11.744Z,29.51
2016-10-28T06:22:52.464Z,29.52
2016-10-28T06:23:33.134Z,29.46
2016-10-28T06:24:13.801Z,29.58
2016-10-28T06:24:54.492Z,29.42
2016-10-28T06:25:35.186Z,29.45
2016-10-28T06:26:15.875Z,29.42
2016-10-28T06:26:56.592Z,29.45
2016-10-28T06:27:37.296Z,29.42
2016-10-28T06:28:17.977Z,29.57
2016-10-28T06:28:58.724Z,29.58
2016-10-28T06:29:39.410Z,29.6
2016-10-28T06:30:20.123Z,29.51
2016-10-28T06:31:00.825Z,29.53
2016-10-28T06:31:41.545Z,29.52
2016-10-28T06:32:22.243Z,29.51
2016-10-28T06:33:02.919Z,29.46
2016-10-28T06:33:43.609Z,29.6
2016-10-28T06:34:24.951Z,29.55
2016-10-28T06:35:05.650Z,29.6
2016-10-28T06:35:47.332Z,29.51
2016-10-28T06:36:28.015Z,29.65
2016-10-28T06:37:08.791Z,29.64
2016-10-28T06:37:49.523Z,29.68
2016-10-28T06:38:30.209Z,29.49
2016-10-28T06:39:10.948Z,29.45
2016-10-28T06:39:51.662Z,29.43
2016-10-28T06:40:32.367Z,29.43
2016-10-28T06:41:13.070Z,29.52
2016-10-28T06:41:53.786Z,29.45
2016-10-28T06:42:34.462Z,29.46
2016-10-28T06:43:15.188Z,29.45
2016-10-28T06:43:55.819Z,29.46
2016-10-28T06:44:36.507Z,29.43
2016-10-28T06:45:17.207Z,29.46
2016-10-28T06:45:57.905Z,29.41
2016-10-28T06:46:38.610Z,29.39
2016-10-28T06:47:19.284Z,29.41
2016-10-28T06:47:59.998Z,29.3
2016-10-28T06:48:40.671Z,29.27
2016-10-28T06:49:21.396Z,29.21
2016-10-28T06:50:02.108Z,29.33
2016-10-28T06:50:42.832Z,29.3
2016-10-28T06:51:23.495Z,29.41
2016-10-28T06:52:04.222Z,29.36
2016-10-28T06:52:44.923Z,29.36
2016-10-28T06:53:25.658Z,29.33
2016-10-28T06:54:06.347Z,29.33
2016-10-28T06:54:47.068Z,29.3
2016-10-28T06:55:27.731Z,29.34
2016-10-28T06:56:08.428Z,29.3
2016-10-28T06:56:49.115Z,29.18
2016-10-28T06:57:29.834Z,29.27
2016-10-28T06:58:10.538Z,29.23
2016-10-28T06:58:51.267Z,29.19
2016-10-28T06:59:31.977Z,29.18
2016-10-28T07:00:12.663Z,29.33
2016-10-28T07:00:53.346Z,29.37
2016-10-28T07:01:34.075Z,29.23
2016-10-28T07:02:14.769Z,29.3
2016-10-28T07:02:55.484Z,29.18
2016-10-28T07:03:36.205Z,29.23
2016-10-28T07:04:16.926Z,29.26
2016-10-28T07:04:57.635Z,29.37
2016-10-28T07:05:38.369Z,29.34
2016-10-28T07:06:19.075Z,29.41
2016-10-28T07:06:59.814Z,29.45
2016-10-28T07:07:40.627Z,29.23
2016-10-28T07:08:21.347Z,29.21
2016-10-28T07:09:02.202Z,29.19
2016-10-28T07:09:43.068Z,29.33
2016-10-28T07:10:23.903Z,29.23
2016-10-28T07:11:04.704Z,29.26
2016-10-28T07:11:45.491Z,29.19
2016-10-28T07:12:26.297Z,29.23
2016-10-28T07:13:06.960Z,29.18
2016-10-28T07:13:47.702Z,29.21
2016-10-28T07:14:28.355Z,29.27
2016-10-28T07:15:09.116Z,29.26
2016-10-28T07:15:49.803Z,29.15
2016-10-28T07:16:30.514Z,29.19
2016-10-28T07:17:11.201Z,29.12
2016-10-28T07:17:51.878Z,28.96
2016-10-28T07:18:32.595Z,29.27
2016-10-28T07:19:13.296Z,28.96
2016-10-28T07:19:54.005Z,28.92
2016-10-28T07:20:34.772Z,29.05
2016-10-28T07:21:15.469Z,29.27
2016-10-28T07:21:56.206Z,29.28
2016-10-28T07:22:36.896Z,29.23
2016-10-28T07:23:17.680Z,29.16
2016-10-28T07:23:58.409Z,29.24
2016-10-28T07:24:39.128Z,29.39
2016-10-28T07:25:19.770Z,29.24
2016-10-28T07:26:00.553Z,29.16
2016-10-28T07:26:41.233Z,29.18
2016-10-28T07:27:21.951Z,29.19
2016-10-28T07:28:02.622Z,29.12
2016-10-28T07:28:43.340Z,29.02
2016-10-28T07:29:24.080Z,29.06
2016-10-28T07:30:04.799Z,29.09
2016-10-28T07:30:45.483Z,29
2016-10-28T07:31:26.159Z,29
2016-10-28T07:32:06.861Z,28.98
2016-10-28T07:32:47.497Z,28.96
2016-10-28T07:33:28.184Z,29.09
2016-10-28T07:34:08.881Z,29.11
2016-10-28T07:34:49.587Z,29.14
2016-10-28T07:35:30.304Z,28.92
2016-10-28T07:36:11.281Z,28.93
2016-10-28T07:36:52.027Z,28.98
2016-10-28T07:37:32.742Z,28.9
2016-10-28T07:38:13.491Z,28.88
2016-10-28T07:38:54.273Z,28.9
2016-10-28T07:39:34.973Z,29.24
2016-10-28T07:40:15.829Z,29.26
2016-10-28T07:40:56.643Z,29.11
2016-10-28T07:41:37.391Z,29.15
2016-10-28T07:42:18.121Z,29.14
2016-10-28T07:42:58.785Z,28.98
2016-10-28T07:43:39.479Z,29.02
2016-10-28T07:44:20.195Z,29.05
2016-10-28T07:45:00.912Z,29.09
2016-10-28T07:45:41.622Z,29.12
2016-10-28T07:46:22.377Z,29.08
2016-10-28T07:47:03.119Z,29.08
2016-10-28T07:47:44.347Z,29.21
2016-10-28T07:48:25.037Z,29.21
2016-10-28T07:49:05.719Z,29.06
2016-10-28T07:49:46.455Z,29.11
2016-10-28T07:50:27.225Z,28.98
2016-10-28T07:51:08.070Z,29.08
2016-10-28T07:51:49.183Z,29.08
2016-10-28T07:52:30.002Z,29.14
2016-10-28T07:53:10.764Z,29.04
2016-10-28T07:53:51.515Z,29
2016-10-28T07:54:32.166Z,29.14
2016-10-28T07:55:12.901Z,29.24
2016-10-28T07:55:53.568Z,29.16
2016-10-28T07:56:34.281Z,29.05
2016-10-28T07:57:14.959Z,28.96
2016-10-28T07:57:55.909Z,29.02
2016-10-28T07:58:36.557Z,29
2016-10-28T07:59:18.281Z,29
2016-10-28T07:59:58.961Z,29.27
2016-10-28T08:00:39.617Z,29.05
2016-10-28T08:01:20.327Z,29.08
2016-10-28T08:02:01.547Z,28.95
2016-10-28T08:02:41.640Z,29.08
2016-10-28T08:03:22.341Z,29.18
2016-10-28T08:04:03.097Z,29.21
2016-10-28T08:04:43.903Z,29.12
2016-10-28T08:05:24.658Z,29.11
2016-10-28T08:06:05.346Z,29.21
2016-10-28T08:06:46.005Z,29.14
2016-10-28T08:07:26.834Z,29.18
2016-10-28T08:08:07.554Z,29.04
2016-10-28T08:08:48.297Z,28.98
2016-10-28T08:09:29.027Z,29.05
2016-10-28T08:10:09.737Z,29.21
2016-10-28T08:10:50.460Z,29.14
2016-10-28T08:11:31.216Z,29.04
2016-10-28T08:12:11.916Z,29.11
2016-10-28T08:12:52.651Z,29.21
2016-10-28T08:13:33.340Z,29.19
2016-10-28T08:14:14.023Z,29.24
2016-10-28T08:14:54.682Z,29.24
2016-10-28T08:15:35.411Z,29.24
2016-10-28T08:16:16.276Z,29.23
2016-10-28T08:16:57.155Z,29.21
2016-10-28T08:17:37.851Z,29.14
2016-10-28T08:18:19.505Z,29.14
2016-10-28T08:19:00.190Z,28.89
2016-10-28T08:19:40.912Z,29.19
2016-10-28T08:20:21.569Z,29.11
2016-10-28T08:21:02.282Z,29.05
2016-10-28T08:21:42.987Z,29.09
2016-10-28T08:22:23.730Z,29.09
2016-10-28T08:23:04.420Z,29.23
2016-10-28T08:23:45.119Z,29.04
2016-10-28T08:24:25.807Z,28.92
2016-10-28T08:25:06.514Z,29.02
2016-10-28T08:25:47.228Z,28.98
2016-10-28T08:26:27.945Z,29.05
2016-10-28T08:27:09.454Z,28.92
2016-10-28T08:27:50.128Z,29.21
2016-10-28T08:28:30.834Z,29.21
2016-10-28T08:29:11.539Z,29.16
2016-10-28T08:29:52.163Z,29.19
2016-10-28T08:30:32.882Z,28.98
2016-10-28T08:31:13.565Z,29.14
2016-10-28T08:31:54.254Z,29.02
2016-10-28T08:32:34.957Z,28.95
2016-10-28T08:33:15.639Z,28.96
2016-10-28T08:33:56.316Z,28.92
2016-10-28T08:34:37.031Z,28.98
2016-10-28T08:35:17.729Z,29.11
2016-10-28T08:35:58.458Z,29.14
2016-10-28T08:36:39.170Z,29.05
2016-10-28T08:37:19.852Z,29.05
2016-10-28T08:38:00.493Z,28.95
2016-10-28T08:38:41.164Z,28.96
2016-10-28T08:39:21.855Z,28.93
2016-10-28T08:40:02.536Z,28.9
2016-10-28T08:40:43.183Z,29
2016-10-28T08:41:23.868Z,29
2016-10-28T08:42:04.564Z,28.92
2016-10-28T08:42:45.252Z,29.02
2016-10-28T08:43:25.944Z,29.06
2016-10-28T08:44:06.623Z,29
2016-10-28T08:44:47.307Z,29.05
2016-10-28T08:45:28.010Z,29.06
2016-10-28T08:46:08.690Z,29.11